sensor_id;sensor_type;location;lat;lon;timestamp;temperature;humidity
57843;DHT22;43673;51.058;3.734;2023-08-08T00:01:06;15.70;99.90
57843;DHT22;43673;51.058;3.734;2023-08-08T00:03:32;15.70;99.90
57843;DHT22;43673;51.058;3.734;2023-08-08T00:05:58;15.70;99.90
57843;DHT22;43673;51.058;3.734;2023-08-08T00:08:23;15.70;99.90
57843;DHT22;43673;51.058;3.734;2023-08-08T00:10:49;15.60;99.90
57843;DHT22;43673;51.058;3.734;2023-08-08T00:13:15;15.60;99.90
57843;DHT22;43673;51.058;3.734;2023-08-08T00:15:40;15.60;99.90
57843;DHT22;43673;51.058;3.734;2023-08-08T00:18:06;15.60;99.90
57843;DHT22;43673;51.058;3.734;2023-08-08T00:20:32;15.50;99.90
57843;DHT22;43673;51.058;3.734;2023-08-08T00:22:57;15.50;99.90
57843;DHT22;43673;51.058;3.734;2023-08-08T00:25:23;15.50;99.90
57843;DHT22;43673;51.058;3.734;2023-08-08T00:27:50;15.50;99.90
57843;DHT22;43673;51.058;3.734;2023-08-08T00:30:16;15.40;99.90
57843;DHT22;43673;51.058;3.734;2023-08-08T00:32:41;15.40;99.90
57843;DHT22;43673;51.058;3.734;2023-08-08T00:35:08;15.40;99.90
57843;DHT22;43673;51.058;3.734;2023-08-08T00:37:34;15.40;99.90
57843;DHT22;43673;51.058;3.734;2023-08-08T00:39:59;15.30;99.90
57843;DHT22;43673;51.058;3.734;2023-08-08T00:42:25;15.30;99.90
57843;DHT22;43673;51.058;3.734;2023-08-08T00:44:51;15.30;99.90
57843;DHT22;43673;51.058;3.734;2023-08-08T00:47:16;15.30;99.90
57843;DHT22;43673;51.058;3.734;2023-08-08T00:49:42;15.30;99.90
57843;DHT22;43673;51.058;3.734;2023-08-08T00:52:09;15.30;99.90
57843;DHT22;43673;51.058;3.734;2023-08-08T00:54:38;15.30;99.90
57843;DHT22;43673;51.058;3.734;2023-08-08T00:57:04;15.30;99.90
57843;DHT22;43673;51.058;3.734;2023-08-08T00:59:31;15.20;99.90
57843;DHT22;43673;51.058;3.734;2023-08-08T01:01:58;15.20;99.90
57843;DHT22;43673;51.058;3.734;2023-08-08T01:04:26;15.20;99.90
57843;DHT22;43673;51.058;3.734;2023-08-08T01:12:02;15.10;99.90
57843;DHT22;43673;51.058;3.734;2023-08-08T01:14:30;15.10;99.90
57843;DHT22;43673;51.058;3.734;2023-08-08T01:16:58;15.10;99.90
57843;DHT22;43673;51.058;3.734;2023-08-08T01:19:28;15.10;99.90
57843;DHT22;43673;51.058;3.734;2023-08-08T01:21:57;15.10;99.90
57843;DHT22;43673;51.058;3.734;2023-08-08T01:24:24;15.10;99.90
57843;DHT22;43673;51.058;3.734;2023-08-08T01:26:53;15.00;99.90
57843;DHT22;43673;51.058;3.734;2023-08-08T01:29:19;15.10;99.90
57843;DHT22;43673;51.058;3.734;2023-08-08T01:31:44;15.00;99.90
57843;DHT22;43673;51.058;3.734;2023-08-08T01:34:11;15.00;99.90
57843;DHT22;43673;51.058;3.734;2023-08-08T01:37:11;15.00;99.90
57843;DHT22;43673;51.058;3.734;2023-08-08T01:39:39;14.90;99.90
57843;DHT22;43673;51.058;3.734;2023-08-08T01:42:06;14.90;99.90
57843;DHT22;43673;51.058;3.734;2023-08-08T01:44:33;15.00;99.90
57843;DHT22;43673;51.058;3.734;2023-08-08T01:47:00;15.00;99.90
57843;DHT22;43673;51.058;3.734;2023-08-08T01:49:26;15.00;99.90
57843;DHT22;43673;51.058;3.734;2023-08-08T01:51:52;14.90;99.90
57843;DHT22;43673;51.058;3.734;2023-08-08T01:54:18;14.90;99.90
57843;DHT22;43673;51.058;3.734;2023-08-08T01:56:44;14.90;99.90
57843;DHT22;43673;51.058;3.734;2023-08-08T01:59:10;14.80;99.90
57843;DHT22;43673;51.058;3.734;2023-08-08T02:01:36;14.80;99.90
57843;DHT22;43673;51.058;3.734;2023-08-08T02:04:02;14.80;99.90
57843;DHT22;43673;51.058;3.734;2023-08-08T02:06:27;14.80;99.90
57843;DHT22;43673;51.058;3.734;2023-08-08T02:08:53;14.80;99.90
57843;DHT22;43673;51.058;3.734;2023-08-08T02:11:20;14.80;99.90
57843;DHT22;43673;51.058;3.734;2023-08-08T02:13:47;14.80;99.90
57843;DHT22;43673;51.058;3.734;2023-08-08T02:16:13;14.80;99.90
57843;DHT22;43673;51.058;3.734;2023-08-08T02:18:38;14.70;99.90
57843;DHT22;43673;51.058;3.734;2023-08-08T02:21:07;14.70;99.90
57843;DHT22;43673;51.058;3.734;2023-08-08T02:23:33;14.70;99.90
57843;DHT22;43673;51.058;3.734;2023-08-08T02:25:59;14.70;99.90
57843;DHT22;43673;51.058;3.734;2023-08-08T02:28:25;14.70;99.90
57843;DHT22;43673;51.058;3.734;2023-08-08T02:30:50;14.70;99.90
57843;DHT22;43673;51.058;3.734;2023-08-08T02:33:16;14.60;99.90
57843;DHT22;43673;51.058;3.734;2023-08-08T02:35:42;14.60;99.90
57843;DHT22;43673;51.058;3.734;2023-08-08T02:38:08;14.60;99.90
57843;DHT22;43673;51.058;3.734;2023-08-08T02:40:33;14.60;99.90
57843;DHT22;43673;51.058;3.734;2023-08-08T02:42:59;14.60;99.90
57843;DHT22;43673;51.058;3.734;2023-08-08T02:45:25;14.60;99.90
57843;DHT22;43673;51.058;3.734;2023-08-08T02:47:51;14.60;99.90
57843;DHT22;43673;51.058;3.734;2023-08-08T02:50:19;14.60;99.90
57843;DHT22;43673;51.058;3.734;2023-08-08T02:52:44;14.60;99.90
57843;DHT22;43673;51.058;3.734;2023-08-08T02:55:10;14.60;99.90
57843;DHT22;43673;51.058;3.734;2023-08-08T02:57:36;14.60;99.90
57843;DHT22;43673;51.058;3.734;2023-08-08T03:00:02;14.60;99.90
57843;DHT22;43673;51.058;3.734;2023-08-08T03:02:29;14.60;99.90
57843;DHT22;43673;51.058;3.734;2023-08-08T03:04:55;14.60;99.90
57843;DHT22;43673;51.058;3.734;2023-08-08T03:07:21;14.60;99.90
57843;DHT22;43673;51.058;3.734;2023-08-08T03:09:46;14.60;99.90
57843;DHT22;43673;51.058;3.734;2023-08-08T03:12:12;14.60;99.90
57843;DHT22;43673;51.058;3.734;2023-08-08T03:14:38;14.60;99.90
57843;DHT22;43673;51.058;3.734;2023-08-08T03:17:04;14.60;99.90
57843;DHT22;43673;51.058;3.734;2023-08-08T03:19:30;14.60;99.90
57843;DHT22;43673;51.058;3.734;2023-08-08T03:21:55;14.60;99.90
57843;DHT22;43673;51.058;3.734;2023-08-08T03:24:21;14.60;99.90
57843;DHT22;43673;51.058;3.734;2023-08-08T03:26:47;14.60;99.90
57843;DHT22;43673;51.058;3.734;2023-08-08T03:29:12;14.60;99.90
57843;DHT22;43673;51.058;3.734;2023-08-08T03:31:38;14.60;99.90
57843;DHT22;43673;51.058;3.734;2023-08-08T03:34:04;14.60;99.90
57843;DHT22;43673;51.058;3.734;2023-08-08T03:36:30;14.60;99.90
57843;DHT22;43673;51.058;3.734;2023-08-08T03:38:55;14.60;99.90
57843;DHT22;43673;51.058;3.734;2023-08-08T03:41:21;14.60;99.90
57843;DHT22;43673;51.058;3.734;2023-08-08T03:43:47;14.50;99.90
57843;DHT22;43673;51.058;3.734;2023-08-08T03:46:12;14.50;99.90
57843;DHT22;43673;51.058;3.734;2023-08-08T03:48:39;14.50;99.90
57843;DHT22;43673;51.058;3.734;2023-08-08T03:51:04;14.50;99.90
57843;DHT22;43673;51.058;3.734;2023-08-08T03:53:31;14.60;99.90
57843;DHT22;43673;51.058;3.734;2023-08-08T03:55:56;14.60;99.90
57843;DHT22;43673;51.058;3.734;2023-08-08T03:58:22;14.60;99.90
57843;DHT22;43673;51.058;3.734;2023-08-08T04:00:58;14.50;99.90
57843;DHT22;43673;51.058;3.734;2023-08-08T04:03:23;14.50;99.90
57843;DHT22;43673;51.058;3.734;2023-08-08T04:05:52;14.50;99.90
57843;DHT22;43673;51.058;3.734;2023-08-08T04:08:18;14.50;99.90
57843;DHT22;43673;51.058;3.734;2023-08-08T04:10:46;14.60;99.90
57843;DHT22;43673;51.058;3.734;2023-08-08T04:13:12;14.50;99.90
57843;DHT22;43673;51.058;3.734;2023-08-08T04:15:38;14.60;99.90
57843;DHT22;43673;51.058;3.734;2023-08-08T04:18:04;14.60;99.90
57843;DHT22;43673;51.058;3.734;2023-08-08T04:20:33;14.60;99.90
57843;DHT22;43673;51.058;3.734;2023-08-08T04:22:59;14.60;99.90
57843;DHT22;43673;51.058;3.734;2023-08-08T04:25:26;14.60;99.90
57843;DHT22;43673;51.058;3.734;2023-08-08T04:27:51;14.60;99.90
57843;DHT22;43673;51.058;3.734;2023-08-08T04:30:17;14.60;99.90
57843;DHT22;43673;51.058;3.734;2023-08-08T04:32:43;14.60;99.90
57843;DHT22;43673;51.058;3.734;2023-08-08T04:35:08;14.60;99.90
57843;DHT22;43673;51.058;3.734;2023-08-08T04:37:34;14.70;99.90
57843;DHT22;43673;51.058;3.734;2023-08-08T04:40:00;14.70;99.90
57843;DHT22;43673;51.058;3.734;2023-08-08T04:42:25;14.80;99.90
57843;DHT22;43673;51.058;3.734;2023-08-08T04:44:51;14.70;99.90
57843;DHT22;43673;51.058;3.734;2023-08-08T04:47:17;14.80;99.90
57843;DHT22;43673;51.058;3.734;2023-08-08T04:49:43;14.80;99.90
57843;DHT22;43673;51.058;3.734;2023-08-08T04:52:11;14.90;99.90
57843;DHT22;43673;51.058;3.734;2023-08-08T04:54:37;14.90;99.90
57843;DHT22;43673;51.058;3.734;2023-08-08T04:57:03;14.90;99.90
57843;DHT22;43673;51.058;3.734;2023-08-08T04:59:28;15.00;99.90
57843;DHT22;43673;51.058;3.734;2023-08-08T05:01:54;15.10;99.90
57843;DHT22;43673;51.058;3.734;2023-08-08T05:04:20;15.10;99.90
57843;DHT22;43673;51.058;3.734;2023-08-08T05:06:46;15.10;99.90
57843;DHT22;43673;51.058;3.734;2023-08-08T05:09:11;15.20;99.90
57843;DHT22;43673;51.058;3.734;2023-08-08T05:11:37;15.40;99.90
57843;DHT22;43673;51.058;3.734;2023-08-08T05:14:03;15.70;99.90
57843;DHT22;43673;51.058;3.734;2023-08-08T05:16:29;16.00;99.90
57843;DHT22;43673;51.058;3.734;2023-08-08T05:18:54;16.20;99.90
57843;DHT22;43673;51.058;3.734;2023-08-08T05:21:21;16.40;99.90
57843;DHT22;43673;51.058;3.734;2023-08-08T05:23:47;16.80;99.90
57843;DHT22;43673;51.058;3.734;2023-08-08T05:26:15;17.50;99.90
57843;DHT22;43673;51.058;3.734;2023-08-08T05:28:41;18.00;99.90
57843;DHT22;43673;51.058;3.734;2023-08-08T05:31:06;18.20;99.90
57843;DHT22;43673;51.058;3.734;2023-08-08T05:33:32;18.10;99.90
57843;DHT22;43673;51.058;3.734;2023-08-08T05:35:59;18.00;99.90
57843;DHT22;43673;51.058;3.734;2023-08-08T05:38:25;17.80;99.90
57843;DHT22;43673;51.058;3.734;2023-08-08T05:40:50;17.40;99.90
57843;DHT22;43673;51.058;3.734;2023-08-08T05:43:17;17.40;99.90
57843;DHT22;43673;51.058;3.734;2023-08-08T05:45:46;18.00;99.90
57843;DHT22;43673;51.058;3.734;2023-08-08T05:48:12;18.40;99.90
57843;DHT22;43673;51.058;3.734;2023-08-08T05:50:41;19.10;99.90
57843;DHT22;43673;51.058;3.734;2023-08-08T05:53:07;19.50;99.90
57843;DHT22;43673;51.058;3.734;2023-08-08T05:55:33;20.00;99.90
57843;DHT22;43673;51.058;3.734;2023-08-08T05:57:58;20.50;99.90
57843;DHT22;43673;51.058;3.734;2023-08-08T06:00:24;21.20;99.90
57843;DHT22;43673;51.058;3.734;2023-08-08T06:02:50;21.20;99.90
57843;DHT22;43673;51.058;3.734;2023-08-08T06:05:21;21.40;99.90
57843;DHT22;43673;51.058;3.734;2023-08-08T06:07:48;21.70;99.90
57843;DHT22;43673;51.058;3.734;2023-08-08T06:10:14;21.60;99.90
57843;DHT22;43673;51.058;3.734;2023-08-08T06:12:39;22.00;99.90
57843;DHT22;43673;51.058;3.734;2023-08-08T06:15:06;22.20;99.90
57843;DHT22;43673;51.058;3.734;2023-08-08T06:17:32;22.70;99.90
57843;DHT22;43673;51.058;3.734;2023-08-08T06:19:58;24.00;99.90
57843;DHT22;43673;51.058;3.734;2023-08-08T06:22:23;24.60;99.90
57843;DHT22;43673;51.058;3.734;2023-08-08T06:24:49;25.60;99.90
57843;DHT22;43673;51.058;3.734;2023-08-08T06:27:15;25.80;99.90
57843;DHT22;43673;51.058;3.734;2023-08-08T06:29:41;26.20;99.90
57843;DHT22;43673;51.058;3.734;2023-08-08T06:32:07;26.40;99.90
57843;DHT22;43673;51.058;3.734;2023-08-08T06:34:33;26.30;99.90
57843;DHT22;43673;51.058;3.734;2023-08-08T06:36:58;26.10;99.90
57843;DHT22;43673;51.058;3.734;2023-08-08T06:39:24;25.60;99.90
57843;DHT22;43673;51.058;3.734;2023-08-08T06:41:50;25.20;99.90
57843;DHT22;43673;51.058;3.734;2023-08-08T06:44:16;24.60;99.90
57843;DHT22;43673;51.058;3.734;2023-08-08T06:46:42;24.30;99.90
57843;DHT22;43673;51.058;3.734;2023-08-08T06:49:08;23.90;99.90
57843;DHT22;43673;51.058;3.734;2023-08-08T06:51:34;23.60;99.90
57843;DHT22;43673;51.058;3.734;2023-08-08T06:54:00;22.90;99.90
57843;DHT22;43673;51.058;3.734;2023-08-08T06:56:26;22.50;99.90
57843;DHT22;43673;51.058;3.734;2023-08-08T06:58:53;22.10;99.90
57843;DHT22;43673;51.058;3.734;2023-08-08T07:01:19;21.80;99.90
57843;DHT22;43673;51.058;3.734;2023-08-08T07:03:45;21.20;99.90
57843;DHT22;43673;51.058;3.734;2023-08-08T07:06:12;20.80;99.90
57843;DHT22;43673;51.058;3.734;2023-08-08T07:08:38;20.50;99.90
57843;DHT22;43673;51.058;3.734;2023-08-08T07:11:08;20.60;99.90
57843;DHT22;43673;51.058;3.734;2023-08-08T07:13:33;20.50;99.90
57843;DHT22;43673;51.058;3.734;2023-08-08T07:15:59;20.40;99.90
57843;DHT22;43673;51.058;3.734;2023-08-08T07:18:25;20.00;99.90
57843;DHT22;43673;51.058;3.734;2023-08-08T07:20:51;19.60;99.90
57843;DHT22;43673;51.058;3.734;2023-08-08T07:23:16;19.50;99.90
57843;DHT22;43673;51.058;3.734;2023-08-08T07:25:43;19.40;99.90
57843;DHT22;43673;51.058;3.734;2023-08-08T07:28:08;19.30;99.90
57843;DHT22;43673;51.058;3.734;2023-08-08T07:30:35;19.60;99.90
57843;DHT22;43673;51.058;3.734;2023-08-08T07:33:01;19.80;99.90
57843;DHT22;43673;51.058;3.734;2023-08-08T07:35:26;19.60;99.90
57843;DHT22;43673;51.058;3.734;2023-08-08T07:37:52;19.70;99.90
57843;DHT22;43673;51.058;3.734;2023-08-08T07:40:20;19.70;99.90
57843;DHT22;43673;51.058;3.734;2023-08-08T07:42:47;19.60;99.90
57843;DHT22;43673;51.058;3.734;2023-08-08T07:45:13;19.70;99.90
57843;DHT22;43673;51.058;3.734;2023-08-08T07:47:39;19.80;99.90
57843;DHT22;43673;51.058;3.734;2023-08-08T07:50:05;19.70;99.90
57843;DHT22;43673;51.058;3.734;2023-08-08T07:52:36;19.80;99.90
57843;DHT22;43673;51.058;3.734;2023-08-08T07:55:11;19.80;99.90
57843;DHT22;43673;51.058;3.734;2023-08-08T07:57:40;19.80;99.90
57843;DHT22;43673;51.058;3.734;2023-08-08T08:00:06;19.90;99.90
57843;DHT22;43673;51.058;3.734;2023-08-08T08:02:45;19.80;99.90
57843;DHT22;43673;51.058;3.734;2023-08-08T08:05:11;19.80;99.90
57843;DHT22;43673;51.058;3.734;2023-08-08T08:07:38;19.50;99.90
57843;DHT22;43673;51.058;3.734;2023-08-08T08:10:06;19.40;99.90
57843;DHT22;43673;51.058;3.734;2023-08-08T08:12:32;19.30;99.90
57843;DHT22;43673;51.058;3.734;2023-08-08T08:15:00;19.20;99.90
57843;DHT22;43673;51.058;3.734;2023-08-08T08:17:26;19.20;99.90
57843;DHT22;43673;51.058;3.734;2023-08-08T08:19:54;19.20;99.90
57843;DHT22;43673;51.058;3.734;2023-08-08T08:22:20;19.00;99.90
57843;DHT22;43673;51.058;3.734;2023-08-08T08:24:45;19.10;99.90
57843;DHT22;43673;51.058;3.734;2023-08-08T08:27:12;19.30;99.90
57843;DHT22;43673;51.058;3.734;2023-08-08T08:29:38;19.40;99.90
57843;DHT22;43673;51.058;3.734;2023-08-08T08:32:04;19.50;99.90
57843;DHT22;43673;51.058;3.734;2023-08-08T08:34:30;19.60;99.90
57843;DHT22;43673;51.058;3.734;2023-08-08T08:36:56;20.10;99.90
57843;DHT22;43673;51.058;3.734;2023-08-08T08:39:22;20.40;99.90
57843;DHT22;43673;51.058;3.734;2023-08-08T08:42:00;20.90;99.90
57843;DHT22;43673;51.058;3.734;2023-08-08T08:44:33;21.40;99.90
57843;DHT22;43673;51.058;3.734;2023-08-08T08:47:06;21.40;99.90
57843;DHT22;43673;51.058;3.734;2023-08-08T08:49:38;21.10;99.90
57843;DHT22;43673;51.058;3.734;2023-08-08T08:52:04;21.10;99.90
57843;DHT22;43673;51.058;3.734;2023-08-08T08:54:34;20.90;99.90
57843;DHT22;43673;51.058;3.734;2023-08-08T08:57:01;20.70;99.90
57843;DHT22;43673;51.058;3.734;2023-08-08T08:59:27;20.80;99.90
57843;DHT22;43673;51.058;3.734;2023-08-08T09:01:53;20.70;99.90
57843;DHT22;43673;51.058;3.734;2023-08-08T09:04:20;21.00;99.90
57843;DHT22;43673;51.058;3.734;2023-08-08T09:06:47;21.30;99.90
57843;DHT22;43673;51.058;3.734;2023-08-08T09:09:14;21.50;99.90
57843;DHT22;43673;51.058;3.734;2023-08-08T09:11:49;21.60;99.90
57843;DHT22;43673;51.058;3.734;2023-08-08T09:14:25;22.20;99.90
57843;DHT22;43673;51.058;3.734;2023-08-08T09:17:00;23.40;99.90
57843;DHT22;43673;51.058;3.734;2023-08-08T09:25:54;23.60;99.90
57843;DHT22;43673;51.058;3.734;2023-08-08T09:28:22;24.70;99.90
57843;DHT22;43673;51.058;3.734;2023-08-08T09:30:49;24.40;99.90
57843;DHT22;43673;51.058;3.734;2023-08-08T09:33:14;23.60;99.90
57843;DHT22;43673;51.058;3.734;2023-08-08T09:35:40;23.40;99.90
57843;DHT22;43673;51.058;3.734;2023-08-08T09:38:09;22.60;99.90
57843;DHT22;43673;51.058;3.734;2023-08-08T09:40:35;22.50;99.90
57843;DHT22;43673;51.058;3.734;2023-08-08T09:43:02;22.50;99.90
57843;DHT22;43673;51.058;3.734;2023-08-08T09:45:37;23.50;99.90
57843;DHT22;43673;51.058;3.734;2023-08-08T09:48:05;23.60;99.90
57843;DHT22;43673;51.058;3.734;2023-08-08T09:50:33;23.50;99.90
57843;DHT22;43673;51.058;3.734;2023-08-08T09:53:04;23.00;99.90
57843;DHT22;43673;51.058;3.734;2023-08-08T09:55:30;22.70;99.90
57843;DHT22;43673;51.058;3.734;2023-08-08T09:58:08;22.50;99.90
57843;DHT22;43673;51.058;3.734;2023-08-08T10:00:34;22.20;99.90
57843;DHT22;43673;51.058;3.734;2023-08-08T10:03:01;21.90;99.90
57843;DHT22;43673;51.058;3.734;2023-08-08T10:05:27;21.60;99.90
57843;DHT22;43673;51.058;3.734;2023-08-08T10:07:54;21.50;99.90
57843;DHT22;43673;51.058;3.734;2023-08-08T10:10:21;21.40;99.90
57843;DHT22;43673;51.058;3.734;2023-08-08T10:12:51;21.50;99.90
57843;DHT22;43673;51.058;3.734;2023-08-08T10:15:17;21.70;99.90
57843;DHT22;43673;51.058;3.734;2023-08-08T10:17:43;22.30;99.90
57843;DHT22;43673;51.058;3.734;2023-08-08T10:20:10;22.10;99.90
57843;DHT22;43673;51.058;3.734;2023-08-08T10:22:44;21.70;99.90
57843;DHT22;43673;51.058;3.734;2023-08-08T10:25:18;21.80;99.90
57843;DHT22;43673;51.058;3.734;2023-08-08T10:27:45;21.90;99.90
57843;DHT22;43673;51.058;3.734;2023-08-08T10:30:11;22.10;99.90
57843;DHT22;43673;51.058;3.734;2023-08-08T10:32:44;22.20;99.90
57843;DHT22;43673;51.058;3.734;2023-08-08T10:35:12;23.50;99.90
57843;DHT22;43673;51.058;3.734;2023-08-08T10:37:38;23.40;99.90
57843;DHT22;43673;51.058;3.734;2023-08-08T10:40:06;23.30;99.90
57843;DHT22;43673;51.058;3.734;2023-08-08T10:45:04;24.00;99.90
57843;DHT22;43673;51.058;3.734;2023-08-08T10:47:35;24.40;99.90
57843;DHT22;43673;51.058;3.734;2023-08-08T10:50:15;24.20;99.90
57843;DHT22;43673;51.058;3.734;2023-08-08T10:52:53;23.90;99.90
57843;DHT22;43673;51.058;3.734;2023-08-08T10:55:24;22.90;99.90
57843;DHT22;43673;51.058;3.734;2023-08-08T10:58:05;22.20;99.90
57843;DHT22;43673;51.058;3.734;2023-08-08T11:00:33;21.70;99.90
57843;DHT22;43673;51.058;3.734;2023-08-08T11:03:02;21.80;99.90
57843;DHT22;43673;51.058;3.734;2023-08-08T11:05:34;21.90;99.90
57843;DHT22;43673;51.058;3.734;2023-08-08T11:08:02;22.00;99.90
57843;DHT22;43673;51.058;3.734;2023-08-08T11:10:28;21.90;99.90
57843;DHT22;43673;51.058;3.734;2023-08-08T11:12:59;21.90;99.90
57843;DHT22;43673;51.058;3.734;2023-08-08T11:15:25;22.30;99.90
57843;DHT22;43673;51.058;3.734;2023-08-08T11:17:55;22.80;99.90
57843;DHT22;43673;51.058;3.734;2023-08-08T11:20:22;23.30;99.90
57843;DHT22;43673;51.058;3.734;2023-08-08T11:22:55;23.00;99.90
57843;DHT22;43673;51.058;3.734;2023-08-08T11:25:22;23.20;99.90
57843;DHT22;43673;51.058;3.734;2023-08-08T11:27:52;23.30;99.90
57843;DHT22;43673;51.058;3.734;2023-08-08T11:30:19;23.10;99.90
57843;DHT22;43673;51.058;3.734;2023-08-08T11:32:46;23.30;99.90
57843;DHT22;43673;51.058;3.734;2023-08-08T11:35:23;23.60;99.90
57843;DHT22;43673;51.058;3.734;2023-08-08T11:37:53;23.70;99.90
57843;DHT22;43673;51.058;3.734;2023-08-08T11:40:20;23.70;99.90
57843;DHT22;43673;51.058;3.734;2023-08-08T11:42:47;23.40;99.90
57843;DHT22;43673;51.058;3.734;2023-08-08T11:45:13;23.40;99.90
57843;DHT22;43673;51.058;3.734;2023-08-08T11:47:42;23.50;99.90
57843;DHT22;43673;51.058;3.734;2023-08-08T11:50:10;23.50;99.90
57843;DHT22;43673;51.058;3.734;2023-08-08T11:52:43;23.00;99.90
57843;DHT22;43673;51.058;3.734;2023-08-08T11:55:11;23.30;99.90
57843;DHT22;43673;51.058;3.734;2023-08-08T11:57:37;23.50;99.90
57843;DHT22;43673;51.058;3.734;2023-08-08T12:00:09;23.50;99.90
57843;DHT22;43673;51.058;3.734;2023-08-08T12:02:42;23.50;99.90
57843;DHT22;43673;51.058;3.734;2023-08-08T12:05:14;23.20;99.90
57843;DHT22;43673;51.058;3.734;2023-08-08T12:07:42;22.80;99.90
57843;DHT22;43673;51.058;3.734;2023-08-08T12:10:15;22.60;99.90
57843;DHT22;43673;51.058;3.734;2023-08-08T12:12:43;22.80;99.90
57843;DHT22;43673;51.058;3.734;2023-08-08T12:15:10;23.20;99.90
57843;DHT22;43673;51.058;3.734;2023-08-08T12:17:36;23.40;99.90
57843;DHT22;43673;51.058;3.734;2023-08-08T12:20:10;23.70;99.90
57843;DHT22;43673;51.058;3.734;2023-08-08T12:22:37;23.70;99.90
57843;DHT22;43673;51.058;3.734;2023-08-08T12:25:04;23.70;99.90
57843;DHT22;43673;51.058;3.734;2023-08-08T12:27:30;24.20;99.90
57843;DHT22;43673;51.058;3.734;2023-08-08T12:29:56;24.60;99.90
57843;DHT22;43673;51.058;3.734;2023-08-08T12:32:27;24.20;99.90
57843;DHT22;43673;51.058;3.734;2023-08-08T12:34:55;24.20;99.90
57843;DHT22;43673;51.058;3.734;2023-08-08T12:37:22;24.30;99.90
57843;DHT22;43673;51.058;3.734;2023-08-08T12:39:49;24.10;99.90
57843;DHT22;43673;51.058;3.734;2023-08-08T12:42:15;24.20;99.90
57843;DHT22;43673;51.058;3.734;2023-08-08T12:44:41;23.90;99.90
57843;DHT22;43673;51.058;3.734;2023-08-08T12:47:07;24.00;99.90
57843;DHT22;43673;51.058;3.734;2023-08-08T12:49:32;24.10;99.90
57843;DHT22;43673;51.058;3.734;2023-08-08T12:51:58;24.40;99.90
57843;DHT22;43673;51.058;3.734;2023-08-08T12:54:24;24.40;99.90
57843;DHT22;43673;51.058;3.734;2023-08-08T12:56:50;24.20;99.90
57843;DHT22;43673;51.058;3.734;2023-08-08T12:59:16;24.00;99.90
57843;DHT22;43673;51.058;3.734;2023-08-08T13:01:41;24.20;99.90
57843;DHT22;43673;51.058;3.734;2023-08-08T13:04:07;23.90;99.90
57843;DHT22;43673;51.058;3.734;2023-08-08T13:06:33;24.10;99.90
57843;DHT22;43673;51.058;3.734;2023-08-08T13:08:59;24.50;99.90
57843;DHT22;43673;51.058;3.734;2023-08-08T13:11:29;24.90;99.40
57843;DHT22;43673;51.058;3.734;2023-08-08T13:13:55;25.10;99.10
57843;DHT22;43673;51.058;3.734;2023-08-08T13:16:21;25.40;98.80
57843;DHT22;43673;51.058;3.734;2023-08-08T13:19:14;25.30;98.40
57843;DHT22;43673;51.058;3.734;2023-08-08T13:21:42;24.80;98.80
57843;DHT22;43673;51.058;3.734;2023-08-08T13:24:08;24.70;98.60
57843;DHT22;43673;51.058;3.734;2023-08-08T13:26:39;24.60;99.10
57843;DHT22;43673;51.058;3.734;2023-08-08T13:29:06;24.00;99.50
57843;DHT22;43673;51.058;3.734;2023-08-08T13:31:32;23.60;99.90
57843;DHT22;43673;51.058;3.734;2023-08-08T13:33:58;23.50;99.90
57843;DHT22;43673;51.058;3.734;2023-08-08T13:39:44;23.30;99.90
57843;DHT22;43673;51.058;3.734;2023-08-08T13:45:25;23.10;99.90
57843;DHT22;43673;51.058;3.734;2023-08-08T13:50:46;22.30;99.90
57843;DHT22;43673;51.058;3.734;2023-08-08T13:53:15;21.90;99.90
57843;DHT22;43673;51.058;3.734;2023-08-08T13:56:22;21.70;99.90
57843;DHT22;43673;51.058;3.734;2023-08-08T13:58:58;21.90;99.90
57843;DHT22;43673;51.058;3.734;2023-08-08T14:01:24;22.20;99.90
57843;DHT22;43673;51.058;3.734;2023-08-08T14:03:53;22.30;99.90
57843;DHT22;43673;51.058;3.734;2023-08-08T14:06:21;22.20;99.90
57843;DHT22;43673;51.058;3.734;2023-08-08T14:08:47;22.20;99.90
57843;DHT22;43673;51.058;3.734;2023-08-08T14:11:13;22.10;99.90
57843;DHT22;43673;51.058;3.734;2023-08-08T14:13:39;22.10;99.90
57843;DHT22;43673;51.058;3.734;2023-08-08T14:16:06;22.00;99.90
57843;DHT22;43673;51.058;3.734;2023-08-08T14:18:31;21.80;99.90
57843;DHT22;43673;51.058;3.734;2023-08-08T14:20:57;21.60;99.90
57843;DHT22;43673;51.058;3.734;2023-08-08T14:23:23;21.40;99.90
57843;DHT22;43673;51.058;3.734;2023-08-08T14:25:49;21.30;99.90
57843;DHT22;43673;51.058;3.734;2023-08-08T14:28:15;21.10;99.90
57843;DHT22;43673;51.058;3.734;2023-08-08T14:30:40;21.10;99.90
57843;DHT22;43673;51.058;3.734;2023-08-08T14:33:09;21.20;99.90
57843;DHT22;43673;51.058;3.734;2023-08-08T14:35:35;21.20;99.90
57843;DHT22;43673;51.058;3.734;2023-08-08T14:38:10;21.20;99.90
57843;DHT22;43673;51.058;3.734;2023-08-08T14:40:39;21.10;99.90
57843;DHT22;43673;51.058;3.734;2023-08-08T14:43:17;21.00;99.90
57843;DHT22;43673;51.058;3.734;2023-08-08T14:45:43;21.00;99.90
57843;DHT22;43673;51.058;3.734;2023-08-08T14:48:16;21.20;99.90
57843;DHT22;43673;51.058;3.734;2023-08-08T14:50:45;21.30;99.90
57843;DHT22;43673;51.058;3.734;2023-08-08T14:53:11;21.30;99.90
57843;DHT22;43673;51.058;3.734;2023-08-08T14:55:37;21.40;99.90
57843;DHT22;43673;51.058;3.734;2023-08-08T14:58:06;21.40;99.90
57843;DHT22;43673;51.058;3.734;2023-08-08T15:00:32;21.40;99.90
57843;DHT22;43673;51.058;3.734;2023-08-08T15:02:57;21.20;99.90
57843;DHT22;43673;51.058;3.734;2023-08-08T15:05:23;21.30;99.90
57843;DHT22;43673;51.058;3.734;2023-08-08T15:07:49;21.10;99.90
57843;DHT22;43673;51.058;3.734;2023-08-08T15:10:20;21.00;99.90
57843;DHT22;43673;51.058;3.734;2023-08-08T15:12:46;20.80;99.90
57843;DHT22;43673;51.058;3.734;2023-08-08T15:15:13;21.00;99.90
57843;DHT22;43673;51.058;3.734;2023-08-08T15:17:42;20.90;99.90
57843;DHT22;43673;51.058;3.734;2023-08-08T15:20:08;20.80;99.90
57843;DHT22;43673;51.058;3.734;2023-08-08T15:22:37;20.60;99.90
57843;DHT22;43673;51.058;3.734;2023-08-08T15:25:09;20.50;99.90
57843;DHT22;43673;51.058;3.734;2023-08-08T15:27:40;20.60;99.90
57843;DHT22;43673;51.058;3.734;2023-08-08T15:30:06;20.80;99.90
57843;DHT22;43673;51.058;3.734;2023-08-08T15:32:32;21.00;99.90
57843;DHT22;43673;51.058;3.734;2023-08-08T15:34:58;21.00;99.90
57843;DHT22;43673;51.058;3.734;2023-08-08T15:37:24;21.00;99.90
57843;DHT22;43673;51.058;3.734;2023-08-08T15:39:49;21.10;99.90
57843;DHT22;43673;51.058;3.734;2023-08-08T15:42:15;21.00;99.90
57843;DHT22;43673;51.058;3.734;2023-08-08T15:44:41;21.10;99.90
57843;DHT22;43673;51.058;3.734;2023-08-08T15:47:10;21.00;99.90
57843;DHT22;43673;51.058;3.734;2023-08-08T15:49:36;20.80;99.90
57843;DHT22;43673;51.058;3.734;2023-08-08T15:52:02;20.90;99.90
57843;DHT22;43673;51.058;3.734;2023-08-08T15:54:28;21.00;99.90